sensor_id;sensor_type;location;lat;lon;timestamp;P1;durP1;ratioP1;P2;durP2;ratioP2
24859;SDS011;12936;52.006;4.350;2023-03-23T00:01:20;5.83;;;3.80;;
24859;SDS011;12936;52.006;4.350;2023-03-23T00:03:50;7.83;;;3.57;;
24859;SDS011;12936;52.006;4.350;2023-03-23T00:06:24;8.30;;;3.60;;
24859;SDS011;12936;52.006;4.350;2023-03-23T00:09:13;10.70;;;3.70;;
24859;SDS011;12936;52.006;4.350;2023-03-23T00:11:42;8.73;;;3.80;;
24859;SDS011;12936;52.006;4.350;2023-03-23T00:14:10;9.37;;;3.17;;
24859;SDS011;12936;52.006;4.350;2023-03-23T00:16:40;8.77;;;3.10;;
24859;SDS011;12936;52.006;4.350;2023-03-23T00:19:08;8.40;;;3.30;;
24859;SDS011;12936;52.006;4.350;2023-03-23T00:21:39;4.90;;;2.30;;
24859;SDS011;12936;52.006;4.350;2023-03-23T00:24:08;4.83;;;2.63;;
24859;SDS011;12936;52.006;4.350;2023-03-23T00:26:38;5.63;;;2.50;;
24859;SDS011;12936;52.006;4.350;2023-03-23T00:29:07;6.23;;;2.07;;
24859;SDS011;12936;52.006;4.350;2023-03-23T00:31:39;7.63;;;2.73;;
24859;SDS011;12936;52.006;4.350;2023-03-23T00:34:12;8.47;;;2.43;;
24859;SDS011;12936;52.006;4.350;2023-03-23T00:36:50;5.90;;;2.40;;
24859;SDS011;12936;52.006;4.350;2023-03-23T00:39:21;5.27;;;3.00;;
24859;SDS011;12936;52.006;4.350;2023-03-23T00:41:50;7.43;;;3.00;;
24859;SDS011;12936;52.006;4.350;2023-03-23T00:44:26;10.33;;;3.33;;
24859;SDS011;12936;52.006;4.350;2023-03-23T00:46:55;6.03;;;3.10;;
24859;SDS011;12936;52.006;4.350;2023-03-23T00:49:42;5.97;;;2.63;;
24859;SDS011;12936;52.006;4.350;2023-03-23T00:52:16;5.63;;;2.77;;
24859;SDS011;12936;52.006;4.350;2023-03-23T00:54:44;4.10;;;2.47;;
24859;SDS011;12936;52.006;4.350;2023-03-23T00:57:12;7.47;;;3.27;;
24859;SDS011;12936;52.006;4.350;2023-03-23T00:59:41;6.07;;;3.03;;
24859;SDS011;12936;52.006;4.350;2023-03-23T01:02:08;6.27;;;3.20;;
24859;SDS011;12936;52.006;4.350;2023-03-23T01:04:38;7.30;;;3.47;;
24859;SDS011;12936;52.006;4.350;2023-03-23T01:07:10;4.60;;;3.47;;
24859;SDS011;12936;52.006;4.350;2023-03-23T01:09:40;5.30;;;3.03;;
24859;SDS011;12936;52.006;4.350;2023-03-23T01:12:10;6.23;;;3.47;;
24859;SDS011;12936;52.006;4.350;2023-03-23T01:14:39;7.50;;;3.10;;
24859;SDS011;12936;52.006;4.350;2023-03-23T01:17:08;7.17;;;3.37;;
24859;SDS011;12936;52.006;4.350;2023-03-23T01:19:35;6.57;;;3.33;;
24859;SDS011;12936;52.006;4.350;2023-03-23T01:22:05;6.93;;;3.03;;
24859;SDS011;12936;52.006;4.350;2023-03-23T01:24:32;6.07;;;2.60;;
24859;SDS011;12936;52.006;4.350;2023-03-23T01:27:02;6.70;;;2.40;;
24859;SDS011;12936;52.006;4.350;2023-03-23T01:29:31;5.27;;;2.07;;
24859;SDS011;12936;52.006;4.350;2023-03-23T01:32:00;6.20;;;2.77;;
24859;SDS011;12936;52.006;4.350;2023-03-23T01:34:28;3.50;;;1.67;;
24859;SDS011;12936;52.006;4.350;2023-03-23T01:36:56;7.90;;;2.33;;
24859;SDS011;12936;52.006;4.350;2023-03-23T01:39:23;6.23;;;2.50;;
24859;SDS011;12936;52.006;4.350;2023-03-23T01:41:52;5.40;;;1.80;;
24859;SDS011;12936;52.006;4.350;2023-03-23T01:47:39;4.00;;;1.80;;
24859;SDS011;12936;52.006;4.350;2023-03-23T01:50:07;4.77;;;2.30;;
24859;SDS011;12936;52.006;4.350;2023-03-23T01:52:34;4.73;;;3.20;;
24859;SDS011;12936;52.006;4.350;2023-03-23T01:55:01;6.53;;;3.20;;
24859;SDS011;12936;52.006;4.350;2023-03-23T01:57:49;5.57;;;3.20;;
24859;SDS011;12936;52.006;4.350;2023-03-23T02:00:20;7.10;;;3.00;;
24859;SDS011;12936;52.006;4.350;2023-03-23T02:02:49;6.43;;;2.80;;
24859;SDS011;12936;52.006;4.350;2023-03-23T02:05:19;4.33;;;2.57;;
24859;SDS011;12936;52.006;4.350;2023-03-23T02:07:51;6.10;;;2.63;;
24859;SDS011;12936;52.006;4.350;2023-03-23T02:10:20;3.20;;;1.80;;
24859;SDS011;12936;52.006;4.350;2023-03-23T02:13:02;1.97;;;1.60;;
24859;SDS011;12936;52.006;4.350;2023-03-23T02:15:42;3.87;;;1.70;;
24859;SDS011;12936;52.006;4.350;2023-03-23T02:18:18;4.07;;;1.97;;
24859;SDS011;12936;52.006;4.350;2023-03-23T02:21:07;6.43;;;2.20;;
24859;SDS011;12936;52.006;4.350;2023-03-23T02:24:08;4.37;;;1.87;;
24859;SDS011;12936;52.006;4.350;2023-03-23T02:27:02;4.93;;;2.10;;
24859;SDS011;12936;52.006;4.350;2023-03-23T02:29:42;5.00;;;1.93;;
24859;SDS011;12936;52.006;4.350;2023-03-23T02:32:25;5.57;;;2.10;;
24859;SDS011;12936;52.006;4.350;2023-03-23T02:35:12;6.37;;;2.10;;
24859;SDS011;12936;52.006;4.350;2023-03-23T02:38:06;4.27;;;1.80;;
24859;SDS011;12936;52.006;4.350;2023-03-23T02:40:40;7.00;;;1.93;;
24859;SDS011;12936;52.006;4.350;2023-03-23T02:43:11;6.10;;;1.77;;
24859;SDS011;12936;52.006;4.350;2023-03-23T02:46:01;5.77;;;1.90;;
24859;SDS011;12936;52.006;4.350;2023-03-23T02:48:32;8.90;;;1.70;;
24859;SDS011;12936;52.006;4.350;2023-03-23T02:51:02;4.40;;;1.63;;
24859;SDS011;12936;52.006;4.350;2023-03-23T02:53:44;3.57;;;1.70;;
24859;SDS011;12936;52.006;4.350;2023-03-23T02:56:13;3.97;;;1.50;;
24859;SDS011;12936;52.006;4.350;2023-03-23T02:58:40;5.10;;;1.67;;
24859;SDS011;12936;52.006;4.350;2023-03-23T03:01:16;5.03;;;1.37;;
24859;SDS011;12936;52.006;4.350;2023-03-23T03:04:15;4.47;;;1.70;;
24859;SDS011;12936;52.006;4.350;2023-03-23T03:06:48;6.40;;;1.67;;
24859;SDS011;12936;52.006;4.350;2023-03-23T03:09:31;5.77;;;1.70;;
24859;SDS011;12936;52.006;4.350;2023-03-23T03:12:09;6.60;;;1.60;;
24859;SDS011;12936;52.006;4.350;2023-03-23T03:14:49;6.77;;;2.17;;
24859;SDS011;12936;52.006;4.350;2023-03-23T03:17:24;3.57;;;1.70;;
24859;SDS011;12936;52.006;4.350;2023-03-23T03:19:53;4.93;;;1.80;;
24859;SDS011;12936;52.006;4.350;2023-03-23T03:22:25;7.33;;;2.00;;
24859;SDS011;12936;52.006;4.350;2023-03-23T03:24:56;4.27;;;1.80;;
24859;SDS011;12936;52.006;4.350;2023-03-23T03:27:25;7.43;;;1.90;;
24859;SDS011;12936;52.006;4.350;2023-03-23T03:29:54;7.80;;;2.20;;
24859;SDS011;12936;52.006;4.350;2023-03-23T03:32:25;6.00;;;1.73;;
24859;SDS011;12936;52.006;4.350;2023-03-23T03:34:59;7.80;;;1.90;;
24859;SDS011;12936;52.006;4.350;2023-03-23T03:37:33;5.90;;;2.17;;
24859;SDS011;12936;52.006;4.350;2023-03-23T03:40:03;5.97;;;2.30;;
24859;SDS011;12936;52.006;4.350;2023-03-23T03:42:37;4.73;;;1.80;;
24859;SDS011;12936;52.006;4.350;2023-03-23T03:45:05;7.97;;;1.80;;
24859;SDS011;12936;52.006;4.350;2023-03-23T03:47:33;12.57;;;2.23;;
24859;SDS011;12936;52.006;4.350;2023-03-23T03:50:00;9.80;;;2.10;;
24859;SDS011;12936;52.006;4.350;2023-03-23T03:52:27;6.23;;;1.90;;
24859;SDS011;12936;52.006;4.350;2023-03-23T03:54:56;8.00;;;1.93;;
24859;SDS011;12936;52.006;4.350;2023-03-23T03:57:24;8.20;;;2.37;;
24859;SDS011;12936;52.006;4.350;2023-03-23T03:59:51;12.57;;;2.00;;
24859;SDS011;12936;52.006;4.350;2023-03-23T04:02:21;4.43;;;1.73;;
24859;SDS011;12936;52.006;4.350;2023-03-23T04:04:49;3.63;;;1.60;;
24859;SDS011;12936;52.006;4.350;2023-03-23T04:07:18;7.00;;;1.87;;
24859;SDS011;12936;52.006;4.350;2023-03-23T04:09:46;9.47;;;1.80;;
24859;SDS011;12936;52.006;4.350;2023-03-23T04:12:17;7.07;;;1.70;;
24859;SDS011;12936;52.006;4.350;2023-03-23T04:14:44;12.23;;;2.20;;
24859;SDS011;12936;52.006;4.350;2023-03-23T04:17:11;9.03;;;2.33;;
24859;SDS011;12936;52.006;4.350;2023-03-23T04:19:40;8.30;;;1.60;;
24859;SDS011;12936;52.006;4.350;2023-03-23T04:22:07;11.60;;;1.93;;
24859;SDS011;12936;52.006;4.350;2023-03-23T04:24:36;10.63;;;2.50;;
24859;SDS011;12936;52.006;4.350;2023-03-23T04:27:04;15.50;;;3.07;;
24859;SDS011;12936;52.006;4.350;2023-03-23T04:29:34;9.43;;;2.50;;
24859;SDS011;12936;52.006;4.350;2023-03-23T04:32:01;11.80;;;2.10;;
24859;SDS011;12936;52.006;4.350;2023-03-23T04:34:28;7.60;;;2.40;;
24859;SDS011;12936;52.006;4.350;2023-03-23T04:36:57;9.73;;;1.53;;
24859;SDS011;12936;52.006;4.350;2023-03-23T04:39:25;9.60;;;2.00;;
24859;SDS011;12936;52.006;4.350;2023-03-23T04:41:54;4.97;;;1.73;;
24859;SDS011;12936;52.006;4.350;2023-03-23T04:44:26;4.20;;;1.30;;
24859;SDS011;12936;52.006;4.350;2023-03-23T04:46:54;7.77;;;2.17;;
24859;SDS011;12936;52.006;4.350;2023-03-23T04:49:22;12.80;;;2.70;;
24859;SDS011;12936;52.006;4.350;2023-03-23T04:51:49;9.57;;;2.30;;
24859;SDS011;12936;52.006;4.350;2023-03-23T04:54:17;13.23;;;3.37;;
24859;SDS011;12936;52.006;4.350;2023-03-23T04:56:45;16.43;;;3.53;;
24859;SDS011;12936;52.006;4.350;2023-03-23T04:59:12;17.70;;;3.27;;
24859;SDS011;12936;52.006;4.350;2023-03-23T05:01:40;21.37;;;2.73;;
24859;SDS011;12936;52.006;4.350;2023-03-23T05:04:12;14.93;;;3.03;;
24859;SDS011;12936;52.006;4.350;2023-03-23T05:06:56;16.57;;;2.60;;
24859;SDS011;12936;52.006;4.350;2023-03-23T05:09:27;17.00;;;3.10;;
24859;SDS011;12936;52.006;4.350;2023-03-23T05:12:02;14.90;;;3.03;;
24859;SDS011;12936;52.006;4.350;2023-03-23T05:14:31;13.87;;;2.90;;
24859;SDS011;12936;52.006;4.350;2023-03-23T05:16:59;12.83;;;2.87;;
24859;SDS011;12936;52.006;4.350;2023-03-23T05:19:28;16.90;;;3.10;;
24859;SDS011;12936;52.006;4.350;2023-03-23T05:21:56;11.57;;;2.93;;
24859;SDS011;12936;52.006;4.350;2023-03-23T05:24:28;12.10;;;2.80;;
24859;SDS011;12936;52.006;4.350;2023-03-23T05:27:12;23.27;;;3.17;;
24859;SDS011;12936;52.006;4.350;2023-03-23T05:29:42;16.83;;;2.93;;
24859;SDS011;12936;52.006;4.350;2023-03-23T05:32:11;10.97;;;2.43;;
24859;SDS011;12936;52.006;4.350;2023-03-23T05:34:40;13.57;;;2.70;;
24859;SDS011;12936;52.006;4.350;2023-03-23T05:37:08;13.00;;;3.30;;
24859;SDS011;12936;52.006;4.350;2023-03-23T05:39:37;14.37;;;2.93;;
24859;SDS011;12936;52.006;4.350;2023-03-23T05:42:04;20.90;;;3.73;;
24859;SDS011;12936;52.006;4.350;2023-03-23T05:44:32;14.07;;;2.50;;
24859;SDS011;12936;52.006;4.350;2023-03-23T05:46:59;19.33;;;3.33;;
24859;SDS011;12936;52.006;4.350;2023-03-23T05:49:29;16.23;;;2.87;;
24859;SDS011;12936;52.006;4.350;2023-03-23T05:51:57;16.90;;;2.77;;
24859;SDS011;12936;52.006;4.350;2023-03-23T05:54:24;17.63;;;2.90;;
24859;SDS011;12936;52.006;4.350;2023-03-23T05:56:52;17.10;;;3.03;;
24859;SDS011;12936;52.006;4.350;2023-03-23T05:59:19;17.90;;;3.30;;
24859;SDS011;12936;52.006;4.350;2023-03-23T06:01:46;16.87;;;3.03;;
24859;SDS011;12936;52.006;4.350;2023-03-23T06:04:13;17.60;;;3.10;;
24859;SDS011;12936;52.006;4.350;2023-03-23T06:06:41;20.10;;;3.13;;
24859;SDS011;12936;52.006;4.350;2023-03-23T06:09:10;21.33;;;3.70;;
24859;SDS011;12936;52.006;4.350;2023-03-23T06:11:37;13.67;;;2.27;;
24859;SDS011;12936;52.006;4.350;2023-03-23T06:14:04;21.20;;;3.73;;
24859;SDS011;12936;52.006;4.350;2023-03-23T06:16:31;17.17;;;3.23;;
24859;SDS011;12936;52.006;4.350;2023-03-23T06:18:57;15.50;;;3.43;;
24859;SDS011;12936;52.006;4.350;2023-03-23T06:21:25;16.33;;;2.80;;
24859;SDS011;12936;52.006;4.350;2023-03-23T06:23:53;21.00;;;3.70;;
24859;SDS011;12936;52.006;4.350;2023-03-23T06:26:22;15.03;;;3.33;;
24859;SDS011;12936;52.006;4.350;2023-03-23T06:28:53;18.10;;;3.50;;
24859;SDS011;12936;52.006;4.350;2023-03-23T06:31:21;23.90;;;4.00;;
24859;SDS011;12936;52.006;4.350;2023-03-23T06:33:50;18.60;;;3.53;;
24859;SDS011;12936;52.006;4.350;2023-03-23T06:36:17;13.63;;;3.03;;
24859;SDS011;12936;52.006;4.350;2023-03-23T06:38:45;18.67;;;3.60;;
24859;SDS011;12936;52.006;4.350;2023-03-23T06:41:13;17.50;;;2.90;;
24859;SDS011;12936;52.006;4.350;2023-03-23T06:43:44;15.27;;;2.70;;
24859;SDS011;12936;52.006;4.350;2023-03-23T06:46:11;13.97;;;2.83;;
24859;SDS011;12936;52.006;4.350;2023-03-23T06:48:38;14.37;;;2.73;;
24859;SDS011;12936;52.006;4.350;2023-03-23T06:51:05;20.13;;;3.33;;
24859;SDS011;12936;52.006;4.350;2023-03-23T06:53:33;24.57;;;3.30;;
24859;SDS011;12936;52.006;4.350;2023-03-23T06:56:00;11.77;;;2.57;;
24859;SDS011;12936;52.006;4.350;2023-03-23T06:58:27;13.47;;;2.30;;
24859;SDS011;12936;52.006;4.350;2023-03-23T07:00:56;13.27;;;2.90;;
24859;SDS011;12936;52.006;4.350;2023-03-23T07:03:23;17.23;;;2.73;;
24859;SDS011;12936;52.006;4.350;2023-03-23T07:05:51;13.90;;;2.80;;
24859;SDS011;12936;52.006;4.350;2023-03-23T07:08:18;13.77;;;2.40;;
24859;SDS011;12936;52.006;4.350;2023-03-23T07:10:45;9.83;;;2.40;;
24859;SDS011;12936;52.006;4.350;2023-03-23T07:13:12;16.97;;;2.60;;
24859;SDS011;12936;52.006;4.350;2023-03-23T07:15:40;13.93;;;2.67;;
24859;SDS011;12936;52.006;4.350;2023-03-23T07:18:08;11.23;;;2.13;;
24859;SDS011;12936;52.006;4.350;2023-03-23T07:20:35;15.80;;;2.90;;
24859;SDS011;12936;52.006;4.350;2023-03-23T07:23:02;11.50;;;2.47;;
24859;SDS011;12936;52.006;4.350;2023-03-23T07:25:30;11.97;;;2.73;;
24859;SDS011;12936;52.006;4.350;2023-03-23T07:28:00;11.43;;;2.30;;
24859;SDS011;12936;52.006;4.350;2023-03-23T07:30:27;13.30;;;2.77;;
24859;SDS011;12936;52.006;4.350;2023-03-23T07:32:55;16.60;;;2.90;;
24859;SDS011;12936;52.006;4.350;2023-03-23T07:35:24;14.80;;;2.50;;
24859;SDS011;12936;52.006;4.350;2023-03-23T07:37:51;11.80;;;2.10;;
24859;SDS011;12936;52.006;4.350;2023-03-23T07:40:20;14.03;;;2.20;;
24859;SDS011;12936;52.006;4.350;2023-03-23T07:42:51;11.90;;;2.67;;
24859;SDS011;12936;52.006;4.350;2023-03-23T07:45:19;16.30;;;2.50;;
24859;SDS011;12936;52.006;4.350;2023-03-23T07:47:46;10.13;;;2.13;;
24859;SDS011;12936;52.006;4.350;2023-03-23T07:50:13;12.40;;;2.57;;
24859;SDS011;12936;52.006;4.350;2023-03-23T07:52:42;16.17;;;3.13;;
24859;SDS011;12936;52.006;4.350;2023-03-23T07:55:11;15.23;;;2.93;;
24859;SDS011;12936;52.006;4.350;2023-03-23T07:57:42;13.83;;;2.53;;
24859;SDS011;12936;52.006;4.350;2023-03-23T08:00:10;16.43;;;2.70;;
24859;SDS011;12936;52.006;4.350;2023-03-23T08:02:44;16.33;;;2.17;;
24859;SDS011;12936;52.006;4.350;2023-03-23T08:05:12;10.80;;;2.63;;
24859;SDS011;12936;52.006;4.350;2023-03-23T08:07:39;11.40;;;2.53;;
24859;SDS011;12936;52.006;4.350;2023-03-23T08:10:09;13.10;;;2.13;;
24859;SDS011;12936;52.006;4.350;2023-03-23T08:12:37;12.50;;;2.07;;
24859;SDS011;12936;52.006;4.350;2023-03-23T08:15:05;12.43;;;2.27;;
24859;SDS011;12936;52.006;4.350;2023-03-23T08:17:33;10.43;;;2.60;;
24859;SDS011;12936;52.006;4.350;2023-03-23T08:20:01;12.17;;;2.33;;
24859;SDS011;12936;52.006;4.350;2023-03-23T08:22:36;11.77;;;2.27;;
24859;SDS011;12936;52.006;4.350;2023-03-23T08:25:04;13.43;;;2.10;;
24859;SDS011;12936;52.006;4.350;2023-03-23T08:27:34;18.13;;;3.03;;
24859;SDS011;12936;52.006;4.350;2023-03-23T08:30:02;8.73;;;1.90;;
24859;SDS011;12936;52.006;4.350;2023-03-23T08:32:30;11.63;;;2.37;;
24859;SDS011;12936;52.006;4.350;2023-03-23T08:34:57;13.03;;;2.93;;
24859;SDS011;12936;52.006;4.350;2023-03-23T08:37:25;21.13;;;3.20;;
24859;SDS011;12936;52.006;4.350;2023-03-23T08:39:52;16.77;;;2.93;;
24859;SDS011;12936;52.006;4.350;2023-03-23T08:42:22;10.90;;;2.07;;
24859;SDS011;12936;52.006;4.350;2023-03-23T08:44:51;15.53;;;2.93;;
24859;SDS011;12936;52.006;4.350;2023-03-23T08:47:18;9.23;;;2.30;;
24859;SDS011;12936;52.006;4.350;2023-03-23T08:49:45;19.07;;;3.00;;
24859;SDS011;12936;52.006;4.350;2023-03-23T08:52:17;14.60;;;3.27;;
24859;SDS011;12936;52.006;4.350;2023-03-23T08:54:46;14.53;;;2.60;;
24859;SDS011;12936;52.006;4.350;2023-03-23T08:57:13;15.63;;;2.57;;
24859;SDS011;12936;52.006;4.350;2023-03-23T08:59:41;20.27;;;2.97;;
24859;SDS011;12936;52.006;4.350;2023-03-23T09:02:10;13.97;;;2.57;;
24859;SDS011;12936;52.006;4.350;2023-03-23T09:04:38;15.47;;;2.67;;
24859;SDS011;12936;52.006;4.350;2023-03-23T09:07:08;16.10;;;2.97;;
24859;SDS011;12936;52.006;4.350;2023-03-23T09:09:36;15.03;;;3.13;;
24859;SDS011;12936;52.006;4.350;2023-03-23T09:12:04;14.47;;;2.40;;
24859;SDS011;12936;52.006;4.350;2023-03-23T09:14:32;13.93;;;2.60;;
24859;SDS011;12936;52.006;4.350;2023-03-23T09:16:59;18.07;;;3.60;;
24859;SDS011;12936;52.006;4.350;2023-03-23T09:19:28;20.43;;;3.60;;
24859;SDS011;12936;52.006;4.350;2023-03-23T09:22:00;19.03;;;3.70;;
24859;SDS011;12936;52.006;4.350;2023-03-23T09:24:27;19.57;;;3.17;;
24859;SDS011;12936;52.006;4.350;2023-03-23T09:26:54;18.37;;;2.80;;
24859;SDS011;12936;52.006;4.350;2023-03-23T09:29:41;17.97;;;3.03;;
24859;SDS011;12936;52.006;4.350;2023-03-23T09:32:09;14.33;;;3.23;;
24859;SDS011;12936;52.006;4.350;2023-03-23T09:34:40;17.03;;;3.57;;
24859;SDS011;12936;52.006;4.350;2023-03-23T09:37:07;14.67;;;3.17;;
24859;SDS011;12936;52.006;4.350;2023-03-23T09:39:34;19.83;;;3.17;;
24859;SDS011;12936;52.006;4.350;2023-03-23T09:42:05;20.33;;;3.20;;
24859;SDS011;12936;52.006;4.350;2023-03-23T09:44:57;20.80;;;3.70;;
24859;SDS011;12936;52.006;4.350;2023-03-23T09:47:36;19.20;;;3.50;;
24859;SDS011;12936;52.006;4.350;2023-03-23T09:50:10;18.67;;;3.53;;
24859;SDS011;12936;52.006;4.350;2023-03-23T09:52:43;22.90;;;3.37;;
24859;SDS011;12936;52.006;4.350;2023-03-23T09:55:14;26.07;;;3.87;;
24859;SDS011;12936;52.006;4.350;2023-03-23T09:57:45;21.43;;;3.33;;
24859;SDS011;12936;52.006;4.350;2023-03-23T10:00:23;18.30;;;3.30;;
24859;SDS011;12936;52.006;4.350;2023-03-23T10:02:59;22.67;;;3.27;;
24859;SDS011;12936;52.006;4.350;2023-03-23T10:05:31;19.77;;;3.93;;
24859;SDS011;12936;52.006;4.350;2023-03-23T10:08:02;19.07;;;2.93;;
24859;SDS011;12936;52.006;4.350;2023-03-23T10:10:37;19.60;;;3.03;;
24859;SDS011;12936;52.006;4.350;2023-03-23T10:13:14;23.03;;;4.03;;
24859;SDS011;12936;52.006;4.350;2023-03-23T10:15:51;18.70;;;3.27;;
24859;SDS011;12936;52.006;4.350;2023-03-23T10:18:22;22.40;;;3.67;;
24859;SDS011;12936;52.006;4.350;2023-03-23T10:20:55;22.10;;;3.57;;
24859;SDS011;12936;52.006;4.350;2023-03-23T10:26:11;23.47;;;3.97;;
24859;SDS011;12936;52.006;4.350;2023-03-23T10:28:46;17.80;;;2.90;;
24859;SDS011;12936;52.006;4.350;2023-03-23T10:31:19;20.97;;;3.80;;
24859;SDS011;12936;52.006;4.350;2023-03-23T10:33:50;15.53;;;3.13;;
24859;SDS011;12936;52.006;4.350;2023-03-23T10:36:22;22.50;;;3.77;;
24859;SDS011;12936;52.006;4.350;2023-03-23T10:38:56;23.50;;;3.67;;
24859;SDS011;12936;52.006;4.350;2023-03-23T10:41:27;19.07;;;3.07;;
24859;SDS011;12936;52.006;4.350;2023-03-23T10:43:56;13.80;;;2.90;;
24859;SDS011;12936;52.006;4.350;2023-03-23T10:46:26;22.30;;;3.60;;
24859;SDS011;12936;52.006;4.350;2023-03-23T10:49:02;23.97;;;3.50;;
24859;SDS011;12936;52.006;4.350;2023-03-23T10:51:36;19.97;;;4.00;;
24859;SDS011;12936;52.006;4.350;2023-03-23T10:54:07;20.57;;;3.40;;
24859;SDS011;12936;52.006;4.350;2023-03-23T10:56:36;19.17;;;3.30;;
24859;SDS011;12936;52.006;4.350;2023-03-23T10:59:13;17.30;;;2.87;;
24859;SDS011;12936;52.006;4.350;2023-03-23T11:01:47;15.53;;;4.00;;
24859;SDS011;12936;52.006;4.350;2023-03-23T11:04:17;15.77;;;3.00;;
24859;SDS011;12936;52.006;4.350;2023-03-23T11:06:48;18.93;;;3.33;;
24859;SDS011;12936;52.006;4.350;2023-03-23T11:09:18;18.10;;;3.67;;
24859;SDS011;12936;52.006;4.350;2023-03-23T11:11:48;16.77;;;3.40;;
24859;SDS011;12936;52.006;4.350;2023-03-23T11:14:17;15.23;;;3.30;;
24859;SDS011;12936;52.006;4.350;2023-03-23T11:16:49;14.73;;;2.10;;
24859;SDS011;12936;52.006;4.350;2023-03-23T11:19:21;11.30;;;2.27;;
24859;SDS011;12936;52.006;4.350;2023-03-23T11:21:52;10.47;;;2.97;;
24859;SDS011;12936;52.006;4.350;2023-03-23T11:24:21;15.17;;;3.20;;
24859;SDS011;12936;52.006;4.350;2023-03-23T11:26:51;11.87;;;2.70;;
24859;SDS011;12936;52.006;4.350;2023-03-23T11:29:19;15.20;;;2.53;;
24859;SDS011;12936;52.006;4.350;2023-03-23T11:31:49;13.30;;;2.67;;
24859;SDS011;12936;52.006;4.350;2023-03-23T11:34:19;15.03;;;2.27;;
24859;SDS011;12936;52.006;4.350;2023-03-23T11:36:48;12.90;;;2.77;;
24859;SDS011;12936;52.006;4.350;2023-03-23T11:39:22;14.03;;;2.20;;
24859;SDS011;12936;52.006;4.350;2023-03-23T11:41:51;16.77;;;2.30;;
24859;SDS011;12936;52.006;4.350;2023-03-23T11:44:20;13.03;;;2.37;;
24859;SDS011;12936;52.006;4.350;2023-03-23T11:46:50;12.30;;;1.97;;
24859;SDS011;12936;52.006;4.350;2023-03-23T11:49:27;14.53;;;2.50;;
24859;SDS011;12936;52.006;4.350;2023-03-23T11:52:10;15.32;;;2.33;;
24859;SDS011;12936;52.006;4.350;2023-03-23T11:54:45;15.63;;;2.50;;
24859;SDS011;12936;52.006;4.350;2023-03-23T11:57:16;9.77;;;2.00;;
24859;SDS011;12936;52.006;4.350;2023-03-23T11:59:43;13.00;;;3.23;;
24859;SDS011;12936;52.006;4.350;2023-03-23T12:02:27;13.00;;;2.90;;
24859;SDS011;12936;52.006;4.350;2023-03-23T12:05:26;12.68;;;3.10;;
24859;SDS011;12936;52.006;4.350;2023-03-23T12:08:04;11.43;;;2.30;;
24859;SDS011;12936;52.006;4.350;2023-03-23T12:10:51;15.55;;;3.20;;
24859;SDS011;12936;52.006;4.350;2023-03-23T12:13:36;11.45;;;2.22;;
24859;SDS011;12936;52.006;4.350;2023-03-23T12:16:20;14.80;;;2.73;;
24859;SDS011;12936;52.006;4.350;2023-03-23T12:18:56;13.47;;;2.70;;
24859;SDS011;12936;52.006;4.350;2023-03-23T12:21:44;13.00;;;2.50;;
24859;SDS011;12936;52.006;4.350;2023-03-23T12:24:21;10.20;;;2.90;;
24859;SDS011;12936;52.006;4.350;2023-03-23T12:27:00;11.57;;;2.65;;
24859;SDS011;12936;52.006;4.350;2023-03-23T12:29:36;18.10;;;2.90;;
24859;SDS011;12936;52.006;4.350;2023-03-23T12:32:19;20.05;;;3.47;;
24859;SDS011;12936;52.006;4.350;2023-03-23T12:34:58;13.27;;;2.65;;
24859;SDS011;12936;52.006;4.350;2023-03-23T12:37:38;14.05;;;2.60;;
24859;SDS011;12936;52.006;4.350;2023-03-23T12:40:28;16.13;;;2.92;;
24859;SDS011;12936;52.006;4.350;2023-03-23T12:43:08;16.75;;;2.75;;
24859;SDS011;12936;52.006;4.350;2023-03-23T12:45:50;12.60;;;2.50;;
24859;SDS011;12936;52.006;4.350;2023-03-23T12:48:29;14.15;;;2.92;;
24859;SDS011;12936;52.006;4.350;2023-03-23T12:51:03;13.80;;;2.37;;
24859;SDS011;12936;52.006;4.350;2023-03-23T12:53:38;12.40;;;2.77;;
24859;SDS011;12936;52.006;4.350;2023-03-23T12:56:12;13.95;;;2.13;;
24859;SDS011;12936;52.006;4.350;2023-03-23T12:58:45;17.25;;;2.80;;
24859;SDS011;12936;52.006;4.350;2023-03-23T13:01:14;14.37;;;2.73;;
24859;SDS011;12936;52.006;4.350;2023-03-23T13:03:48;16.17;;;2.90;;
24859;SDS011;12936;52.006;4.350;2023-03-23T13:06:22;17.07;;;3.03;;
24859;SDS011;12936;52.006;4.350;2023-03-23T13:08:56;14.13;;;2.30;;
24859;SDS011;12936;52.006;4.350;2023-03-23T13:11:28;15.90;;;2.67;;
24859;SDS011;12936;52.006;4.350;2023-03-23T13:14:01;24.70;;;3.47;;
24859;SDS011;12936;52.006;4.350;2023-03-23T13:16:38;20.98;;;3.33;;
24859;SDS011;12936;52.006;4.350;2023-03-23T13:19:11;14.53;;;2.83;;
24859;SDS011;12936;52.006;4.350;2023-03-23T13:21:44;20.77;;;2.92;;
24859;SDS011;12936;52.006;4.350;2023-03-23T13:24:18;16.83;;;2.63;;
24859;SDS011;12936;52.006;4.350;2023-03-23T13:26:49;13.23;;;2.47;;
24859;SDS011;12936;52.006;4.350;2023-03-23T13:29:18;22.92;;;3.08;;
24859;SDS011;12936;52.006;4.350;2023-03-23T13:31:49;15.88;;;2.50;;
24859;SDS011;12936;52.006;4.350;2023-03-23T13:34:18;16.90;;;3.20;;
24859;SDS011;12936;52.006;4.350;2023-03-23T13:36:52;13.23;;;3.03;;
24859;SDS011;12936;52.006;4.350;2023-03-23T13:39:21;13.43;;;2.40;;
24859;SDS011;12936;52.006;4.350;2023-03-23T13:41:59;15.75;;;2.67;;
24859;SDS011;12936;52.006;4.350;2023-03-23T13:44:42;24.73;;;3.08;;
24859;SDS011;12936;52.006;4.350;2023-03-23T13:47:17;13.38;;;3.40;;
24859;SDS011;12936;52.006;4.350;2023-03-23T13:49:53;19.40;;;2.83;;
24859;SDS011;12936;52.006;4.350;2023-03-23T13:52:22;11.18;;;2.40;;
24859;SDS011;12936;52.006;4.350;2023-03-23T13:55:12;16.98;;;3.83;;
24859;SDS011;12936;52.006;4.350;2023-03-23T13:57:51;17.17;;;2.97;;
24859;SDS011;12936;52.006;4.350;2023-03-23T14:00:35;19.48;;;2.97;;
24859;SDS011;12936;52.006;4.350;2023-03-23T14:03:11;16.67;;;3.13;;
24859;SDS011;12936;52.006;4.350;2023-03-23T14:05:41;15.43;;;2.47;;
24859;SDS011;12936;52.006;4.350;2023-03-23T14:08:12;13.63;;;3.10;;
24859;SDS011;12936;52.006;4.350;2023-03-23T14:10:57;15.40;;;3.08;;
24859;SDS011;12936;52.006;4.350;2023-03-23T14:13:28;18.60;;;2.83;;
24859;SDS011;12936;52.006;4.350;2023-03-23T14:16:01;11.10;;;2.85;;
24859;SDS011;12936;52.006;4.350;2023-03-23T14:18:31;10.25;;;2.05;;
24859;SDS011;12936;52.006;4.350;2023-03-23T14:21:03;15.07;;;2.95;;
24859;SDS011;12936;52.006;4.350;2023-03-23T14:23:31;11.35;;;2.80;;
24859;SDS011;12936;52.006;4.350;2023-03-23T14:26:00;17.08;;;2.70;;
24859;SDS011;12936;52.006;4.350;2023-03-23T14:28:35;13.60;;;2.97;;
24859;SDS011;12936;52.006;4.350;2023-03-23T14:31:07;14.60;;;3.13;;
24859;SDS011;12936;52.006;4.350;2023-03-23T14:33:42;17.77;;;3.33;;
24859;SDS011;12936;52.006;4.350;2023-03-23T14:36:09;11.02;;;2.45;;
24859;SDS011;12936;52.006;4.350;2023-03-23T14:38:36;16.25;;;2.47;;
24859;SDS011;12936;52.006;4.350;2023-03-23T14:41:04;14.70;;;3.17;;
24859;SDS011;12936;52.006;4.350;2023-03-23T14:43:33;15.15;;;2.88;;
24859;SDS011;12936;52.006;4.350;2023-03-23T14:46:01;14.18;;;3.13;;
24859;SDS011;12936;52.006;4.350;2023-03-23T14:48:36;17.63;;;3.13;;
24859;SDS011;12936;52.006;4.350;2023-03-23T14:51:05;14.57;;;3.28;;
24859;SDS011;12936;52.006;4.350;2023-03-23T14:53:33;17.08;;;3.10;;
24859;SDS011;12936;52.006;4.350;2023-03-23T14:56:04;14.20;;;3.13;;
24859;SDS011;12936;52.006;4.350;2023-03-23T14:58:37;11.45;;;2.63;;
24859;SDS011;12936;52.006;4.350;2023-03-23T15:01:05;14.57;;;2.78;;
24859;SDS011;12936;52.006;4.350;2023-03-23T15:03:38;17.85;;;3.58;;
24859;SDS011;12936;52.006;4.350;2023-03-23T15:06:11;12.25;;;2.85;;
24859;SDS011;12936;52.006;4.350;2023-03-23T15:08:42;14.63;;;2.70;;
24859;SDS011;12936;52.006;4.350;2023-03-23T15:11:12;12.23;;;2.78;;